Saint-Hyacinthe, Canada
Current Conditions -  °F | °C
As of 9:00 AM on Monday 24 Nov 2014 (Local Time) from CYHU Reporting Station
Overcast Overcast  
Wind Chill: 50°   Ceiling: 6500
Heat Index: 50°   Visibility: 9mi
Dew Point: 45°   Wind: 17mph
Humidity: 82%   Direction: 150°SSE
Pressure: 29.45"   Gusts: 26mph
Location:  45.62°N, 72.95°W
Report Text: CYHU 241400Z AUTO 15015G23KT 9SM BKN065 OVC090 10/07 A2945 RMK PRESFR SLP972
Loading
Personal Weather Stations






























Interactive Weather Map New forecast layout! Learn more

10-Day Weather Forecast

Advertisements
Track Severe Weather on mobile